sensor_id;sensor_type;location;lat;lon;timestamp;temperature;humidity
15298;DHT22;7750;48.796;9.026;2023-08-24T07:08:53;24.10;67.00
15298;DHT22;7750;48.796;9.026;2023-08-24T07:13:56;24.20;66.70
15298;DHT22;7750;48.796;9.026;2023-08-24T10:00:21;31.40;54.70
15298;DHT22;7750;48.796;9.026;2023-08-24T10:11:19;31.60;54.10
15298;DHT22;7750;48.796;9.026;2023-08-24T12:00:12;36.50;49.20
15298;DHT22;7750;48.796;9.026;2023-08-24T12:05:24;36.60;48.60
15298;DHT22;7750;48.796;9.026;2023-08-24T12:10:26;36.50;48.50
15298;DHT22;7750;48.796;9.026;2023-08-24T12:15:28;36.50;48.60
15298;DHT22;7750;48.796;9.026;2023-08-24T12:20:30;36.60;49.10
15298;DHT22;7750;48.796;9.026;2023-08-24T12:25:31;36.70;48.50
15298;DHT22;7750;48.796;9.026;2023-08-24T12:30:52;36.80;48.60
15298;DHT22;7750;48.796;9.026;2023-08-24T12:35:54;37.10;48.60
15298;DHT22;7750;48.796;9.026;2023-08-24T12:40:55;37.30;48.30
15298;DHT22;7750;48.796;9.026;2023-08-24T12:45:56;37.40;48.00
15298;DHT22;7750;48.796;9.026;2023-08-24T12:50:56;37.50;47.90
15298;DHT22;7750;48.796;9.026;2023-08-24T12:56:00;37.60;47.60
15298;DHT22;7750;48.796;9.026;2023-08-24T13:06:15;38.00;47.10
15298;DHT22;7750;48.796;9.026;2023-08-24T13:11:16;38.10;46.90
15298;DHT22;7750;48.796;9.026;2023-08-24T13:16:16;38.20;46.20
15298;DHT22;7750;48.796;9.026;2023-08-24T13:21:17;38.20;46.20
15298;DHT22;7750;48.796;9.026;2023-08-24T13:26:20;38.20;45.80
15298;DHT22;7750;48.796;9.026;2023-08-24T13:31:21;38.30;45.50
15298;DHT22;7750;48.796;9.026;2023-08-24T13:36:48;38.40;45.10
15298;DHT22;7750;48.796;9.026;2023-08-24T13:41:49;38.40;45.40
15298;DHT22;7750;48.796;9.026;2023-08-24T13:46:50;38.90;44.30
15298;DHT22;7750;48.796;9.026;2023-08-24T13:56:54;39.00;44.70
15298;DHT22;7750;48.796;9.026;2023-08-24T14:01:54;39.10;44.60
15298;DHT22;7750;48.796;9.026;2023-08-24T14:06:55;39.20;42.60
15298;DHT22;7750;48.796;9.026;2023-08-24T14:11:56;39.10;42.40
15298;DHT22;7750;48.796;9.026;2023-08-24T14:16:57;38.90;42.30
15298;DHT22;7750;48.796;9.026;2023-08-24T14:21:57;38.70;41.80
15298;DHT22;7750;48.796;9.026;2023-08-24T14:26:58;38.50;41.90
15298;DHT22;7750;48.796;9.026;2023-08-24T14:31:59;38.20;42.40
15298;DHT22;7750;48.796;9.026;2023-08-24T14:37:00;37.90;42.50
15298;DHT22;7750;48.796;9.026;2023-08-24T14:42:00;37.60;42.90
15298;DHT22;7750;48.796;9.026;2023-08-24T14:47:03;37.40;43.60
15298;DHT22;7750;48.796;9.026;2023-08-24T14:52:04;37.10;43.60
15298;DHT22;7750;48.796;9.026;2023-08-24T14:57:04;36.70;49.80
15298;DHT22;7750;48.796;9.026;2023-08-24T15:02:06;35.80;51.00
15298;DHT22;7750;48.796;9.026;2023-08-24T15:07:07;34.70;52.00
15298;DHT22;7750;48.796;9.026;2023-08-24T15:12:07;33.80;53.90
15298;DHT22;7750;48.796;9.026;2023-08-24T15:17:08;33.00;53.70
15298;DHT22;7750;48.796;9.026;2023-08-24T15:22:09;32.30;54.10
15298;DHT22;7750;48.796;9.026;2023-08-24T15:27:09;31.70;54.60
15298;DHT22;7750;48.796;9.026;2023-08-24T15:32:11;31.30;55.40
15298;DHT22;7750;48.796;9.026;2023-08-24T15:37:13;31.00;55.50
15298;DHT22;7750;48.796;9.026;2023-08-24T15:42:14;30.90;56.10
15298;DHT22;7750;48.796;9.026;2023-08-24T15:47:15;30.70;56.50
15298;DHT22;7750;48.796;9.026;2023-08-24T15:52:15;30.60;57.20
15298;DHT22;7750;48.796;9.026;2023-08-24T15:57:16;30.40;57.50
15298;DHT22;7750;48.796;9.026;2023-08-24T16:02:17;30.30;57.40
15298;DHT22;7750;48.796;9.026;2023-08-24T16:07:19;30.20;57.80
15298;DHT22;7750;48.796;9.026;2023-08-24T16:12:20;30.00;58.20
15298;DHT22;7750;48.796;9.026;2023-08-24T16:17:20;29.90;58.00
15298;DHT22;7750;48.796;9.026;2023-08-24T16:22:21;29.70;58.00
15298;DHT22;7750;48.796;9.026;2023-08-24T16:27:22;29.60;58.80
15298;DHT22;7750;48.796;9.026;2023-08-24T16:32:24;29.40;58.30
15298;DHT22;7750;48.796;9.026;2023-08-24T16:37:24;29.30;58.20
15298;DHT22;7750;48.796;9.026;2023-08-24T16:42:25;29.20;58.80
15298;DHT22;7750;48.796;9.026;2023-08-24T16:47:26;29.10;58.60
15298;DHT22;7750;48.796;9.026;2023-08-24T16:52:26;29.00;58.50
15298;DHT22;7750;48.796;9.026;2023-08-24T16:57:27;28.90;59.00
15298;DHT22;7750;48.796;9.026;2023-08-24T17:02:28;28.90;59.40
15298;DHT22;7750;48.796;9.026;2023-08-24T17:07:30;28.90;59.60
15298;DHT22;7750;48.796;9.026;2023-08-24T17:12:31;28.80;60.40
15298;DHT22;7750;48.796;9.026;2023-08-24T17:17:32;28.80;60.60
15298;DHT22;7750;48.796;9.026;2023-08-24T17:22:34;28.80;61.20
15298;DHT22;7750;48.796;9.026;2023-08-24T17:27:45;28.70;61.50
15298;DHT22;7750;48.796;9.026;2023-08-24T17:32:45;28.70;60.80
15298;DHT22;7750;48.796;9.026;2023-08-24T17:37:46;28.60;59.80
15298;DHT22;7750;48.796;9.026;2023-08-24T17:42:47;28.60;60.10
15298;DHT22;7750;48.796;9.026;2023-08-24T17:47:51;28.40;60.40
15298;DHT22;7750;48.796;9.026;2023-08-24T17:52:51;28.40;60.90
15298;DHT22;7750;48.796;9.026;2023-08-24T17:57:52;28.40;61.00
15298;DHT22;7750;48.796;9.026;2023-08-24T18:02:52;28.30;61.00
15298;DHT22;7750;48.796;9.026;2023-08-24T18:07:53;28.20;61.30
15298;DHT22;7750;48.796;9.026;2023-08-24T18:12:54;28.10;62.20
15298;DHT22;7750;48.796;9.026;2023-08-24T18:17:54;28.00;62.10
15298;DHT22;7750;48.796;9.026;2023-08-24T18:22:56;27.90;62.80
15298;DHT22;7750;48.796;9.026;2023-08-24T19:09:19;26.90;69.30
15298;DHT22;7750;48.796;9.026;2023-08-24T19:30:05;26.90;71.30
15298;DHT22;7750;48.796;9.026;2023-08-24T19:35:06;26.80;70.90
15298;DHT22;7750;48.796;9.026;2023-08-24T19:45:09;26.70;70.80
15298;DHT22;7750;48.796;9.026;2023-08-24T19:55:21;26.60;70.70
15298;DHT22;7750;48.796;9.026;2023-08-24T20:05:47;26.40;70.80
15298;DHT22;7750;48.796;9.026;2023-08-24T20:10:50;26.40;71.60
15298;DHT22;7750;48.796;9.026;2023-08-24T20:21:02;26.30;72.10
15298;DHT22;7750;48.796;9.026;2023-08-24T20:31:26;26.20;72.40
15298;DHT22;7750;48.796;9.026;2023-08-24T20:41:48;26.10;73.40
